Time,TemperatureF,DewpointF,PressureIn,WindDirection,WindDirectionDegrees,WindSpeedMPH,WindSpeedGustMPH,Humidity,HourlyPrecipIn,Conditions,Clouds,dailyrainin,SoftwareType,DateUTC
2013-10-30 00:01:00,59.6,56.7,30.02,SE,135,4.7,4.7,90,0.00,,,0.00,WUHU216HW,2013-10-30 05:01:00,
2013-10-30 00:06:00,59.6,56.7,30.02,SE,135,3.4,4.7,90,0.00,,,0.00,WUHU216HW,2013-10-30 05:06:00,
2013-10-30 00:11:00,59.4,56.5,30.02,SE,135,1.8,4.0,90,0.00,,,0.00,WUHU216HW,2013-10-30 05:11:00,
2013-10-30 00:16:00,59.6,56.7,30.01,SE,135,2.5,4.0,90,0.00,,,0.00,WUHU216HW,2013-10-30 05:16:00,
2013-10-30 00:21:00,59.6,56.7,30.01,ESE,113,2.2,4.9,90,0.00,,,0.00,WUHU216HW,2013-10-30 05:21:00,
2013-10-30 00:26:00,59.6,56.7,30.01,SE,135,3.1,4.9,90,0.00,,,0.00,WUHU216HW,2013-10-30 05:26:00,
2013-10-30 00:31:00,59.6,56.7,30.01,ESE,113,2.7,4.3,90,0.00,,,0.00,WUHU216HW,2013-10-30 05:31:00,
2013-10-30 00:36:00,59.8,56.9,30.01,SE,135,3.8,4.3,90,0.00,,,0.00,WUHU216HW,2013-10-30 05:36:00,
2013-10-30 00:41:00,59.8,56.9,30.01,SSE,158,1.8,3.8,90,0.00,,,0.00,WUHU216HW,2013-10-30 05:41:00,
2013-10-30 00:46:00,59.8,56.9,30.01,SE,135,4.0,4.0,90,0.00,,,0.00,WUHU216HW,2013-10-30 05:46:00,
2013-10-30 00:51:00,59.8,56.9,30.01,SE,135,3.1,4.3,90,0.00,,,0.00,WUHU216HW,2013-10-30 05:51:00,
2013-10-30 00:56:00,59.9,57.1,30.01,ESE,113,3.8,4.7,90,0.00,,,0.00,WUHU216HW,2013-10-30 05:56:00,
2013-10-30 01:01:00,59.9,57.1,30.01,SE,135,3.6,4.7,90,0.00,,,0.00,WUHU216HW,2013-10-30 06:01:00,
2013-10-30 01:06:00,59.9,57.1,30.01,SE,135,1.1,4.0,90,0.00,,,0.00,WUHU216HW,2013-10-30 06:06:00,
2013-10-30 01:11:00,59.9,57.1,30.00,East,90,1.8,3.6,90,0.00,,,0.00,WUHU216HW,2013-10-30 06:11:00,
2013-10-30 01:16:00,59.9,57.1,30.01,SE,135,2.5,3.6,90,0.00,,,0.00,WUHU216HW,2013-10-30 06:16:00,
2013-10-30 01:21:00,59.9,57.1,30.01,SSE,158,0.4,3.6,90,0.00,,,0.00,WUHU216HW,2013-10-30 06:21:00,
2013-10-30 01:26:00,60.1,57.2,30.01,NE,45,0.2,2.2,90,0.00,,,0.00,WUHU216HW,2013-10-30 06:26:00,
2013-10-30 01:31:00,60.3,57.4,30.01,ENE,68,0.0,1.1,90,0.00,,,0.00,WUHU216HW,2013-10-30 06:31:00,
2013-10-30 01:36:00,60.5,57.6,30.01,ENE,68,1.1,1.1,90,0.00,,,0.00,WUHU216HW,2013-10-30 06:36:00,
2013-10-30 01:41:00,60.1,57.2,30.01,SE,135,2.2,2.2,90,0.00,,,0.00,WUHU216HW,2013-10-30 06:41:00,
2013-10-30 01:46:00,60.1,57.2,30.01,ESE,113,1.1,2.2,90,0.00,,,0.00,WUHU216HW,2013-10-30 06:46:00,
2013-10-30 01:51:00,60.1,57.2,30.01,SE,135,1.1,1.8,90,0.00,,,0.00,WUHU216HW,2013-10-30 06:51:00,
2013-10-30 01:56:00,60.3,57.4,30.01,ESE,113,0.4,1.1,90,0.00,,,0.00,WUHU216HW,2013-10-30 06:56:00,
2013-10-30 02:01:00,60.3,57.4,30.01,East,90,0.7,1.6,90,0.00,,,0.00,WUHU216HW,2013-10-30 07:01:00,
2013-10-30 02:06:00,60.1,57.2,30.01,East,90,0.9,1.6,90,0.00,,,0.00,WUHU216HW,2013-10-30 07:06:00,
2013-10-30 02:11:00,60.1,57.2,30.00,ESE,113,0.7,1.1,90,0.00,,,0.00,WUHU216HW,2013-10-30 07:11:00,
2013-10-30 02:16:00,60.1,57.2,30.00,East,90,0.9,2.2,90,0.00,,,0.00,WUHU216HW,2013-10-30 07:16:00,
2013-10-30 02:21:00,60.1,57.2,30.00,ESE,113,0.4,2.2,90,0.00,,,0.00,WUHU216HW,2013-10-30 07:21:00,
2013-10-30 02:26:00,59.9,57.1,30.00,SE,135,2.7,2.7,90,0.00,,,0.00,WUHU216HW,2013-10-30 07:26:00,
2013-10-30 02:31:00,60.1,57.2,30.00,ESE,113,1.6,2.7,90,0.00,,,0.00,WUHU216HW,2013-10-30 07:31:00,
2013-10-30 02:36:00,60.1,57.2,30.00,ESE,113,1.8,2.7,90,0.00,,,0.00,WUHU216HW,2013-10-30 07:36:00,
2013-10-30 02:41:00,60.1,57.2,30.00,SE,135,2.5,2.5,90,0.00,,,0.00,WUHU216HW,2013-10-30 07:41:00,
2013-10-30 02:46:00,60.1,57.2,30.00,SSE,158,2.9,2.9,90,0.00,,,0.00,WUHU216HW,2013-10-30 07:46:00,
2013-10-30 02:51:00,60.3,57.4,30.00,SE,135,3.4,3.4,90,0.00,,,0.00,WUHU216HW,2013-10-30 07:51:00,
2013-10-30 02:56:00,60.3,57.4,30.00,SE,135,3.1,4.0,90,0.00,,,0.00,WUHU216HW,2013-10-30 07:56:00,
2013-10-30 03:01:00,60.3,57.4,30.00,SE,135,1.8,4.0,90,0.00,,,0.00,WUHU216HW,2013-10-30 08:01:00,
2013-10-30 03:06:00,60.5,57.6,30.00,SE,135,1.6,3.4,90,0.00,,,0.00,WUHU216HW,2013-10-30 08:06:00,
2013-10-30 03:11:00,60.5,57.6,29.99,SE,135,2.2,2.2,90,0.00,,,0.00,WUHU216HW,2013-10-30 08:11:00,
2013-10-30 03:16:00,60.5,57.6,29.99,SE,135,2.5,2.5,90,0.00,,,0.00,WUHU216HW,2013-10-30 08:16:00,
2013-10-30 03:21:00,60.5,57.6,29.98,SE,135,1.3,2.5,90,0.00,,,0.00,WUHU216HW,2013-10-30 08:21:00,
2013-10-30 03:26:00,60.7,57.8,29.98,ESE,113,2.2,2.9,90,0.00,,,0.00,WUHU216HW,2013-10-30 08:26:00,
2013-10-30 03:31:00,60.7,57.8,29.98,South,180,4.0,4.0,90,0.00,,,0.00,WUHU216HW,2013-10-30 08:31:00,
2013-10-30 03:36:00,60.8,57.6,29.98,ESE,113,0.9,4.0,89,0.00,,,0.00,WUHU216HW,2013-10-30 08:36:00,
2013-10-30 03:41:00,60.8,57.6,29.98,SSE,158,1.8,4.0,89,0.00,,,0.00,WUHU216HW,2013-10-30 08:41:00,
2013-10-30 03:46:00,61.0,57.8,29.98,SE,135,0.4,2.0,89,0.00,,,0.00,WUHU216HW,2013-10-30 08:46:00,
2013-10-30 03:51:00,61.0,57.8,29.98,ESE,113,1.3,2.0,89,0.00,,,0.00,WUHU216HW,2013-10-30 08:51:00,
2013-10-30 03:56:00,61.0,57.8,29.97,SE,135,1.8,1.8,89,0.00,,,0.00,WUHU216HW,2013-10-30 08:56:00,
2013-10-30 04:01:00,61.2,58.0,29.98,ESE,113,1.8,2.7,89,0.00,,,0.00,WUHU216HW,2013-10-30 09:01:00,
2013-10-30 04:06:00,61.2,58.0,29.98,SE,135,1.8,2.7,89,0.00,,,0.00,WUHU216HW,2013-10-30 09:06:00,
2013-10-30 04:11:00,61.4,58.1,29.98,SE,135,0.4,1.8,89,0.00,,,0.00,WUHU216HW,2013-10-30 09:11:00,
2013-10-30 04:15:00,61.4,58.1,29.97,ESE,113,0.4,2.5,89,0.00,,,0.00,WUHU216HW,2013-10-30 09:15:00,
2013-10-30 04:20:00,61.6,58.3,29.97,SE,135,1.6,2.5,89,0.00,,,0.00,WUHU216HW,2013-10-30 09:20:00,
2013-10-30 04:25:00,61.4,58.1,29.97,SSW,203,0.4,1.6,89,0.00,,,0.00,WUHU216HW,2013-10-30 09:25:00,
2013-10-30 04:30:00,61.6,58.3,29.97,East,90,0.4,1.8,89,0.00,,,0.00,WUHU216HW,2013-10-30 09:30:00,
2013-10-30 04:35:00,61.4,58.1,29.96,ENE,68,1.1,1.8,89,0.00,,,0.00,WUHU216HW,2013-10-30 09:35:00,
2013-10-30 04:40:00,61.4,58.1,29.96,ENE,68,0.4,2.0,89,0.00,,,0.00,WUHU216HW,2013-10-30 09:40:00,
2013-10-30 04:45:00,61.6,58.3,29.97,SE,135,0.9,2.0,89,0.00,,,0.00,WUHU216HW,2013-10-30 09:45:00,
2013-10-30 04:50:00,61.6,58.3,29.98,SW,225,0.7,1.1,89,0.00,,,0.00,WUHU216HW,2013-10-30 09:50:00,
2013-10-30 04:55:00,61.6,58.3,29.99,SW,225,0.4,1.6,89,0.00,,,0.00,WUHU216HW,2013-10-30 09:55:00,
2013-10-30 05:00:00,61.6,58.3,29.99,WSW,248,0.4,1.6,89,0.00,,,0.00,WUHU216HW,2013-10-30 10:00:00,
2013-10-30 05:05:00,61.6,58.3,29.98,East,90,1.1,1.1,89,0.00,,,0.00,WUHU216HW,2013-10-30 10:05:00,
2013-10-30 05:10:00,61.4,58.1,29.97,ESE,113,2.2,2.2,89,0.00,,,0.00,WUHU216HW,2013-10-30 10:10:00,
2013-10-30 05:15:00,61.4,58.1,29.97,ESE,113,4.0,4.0,89,0.00,,,0.00,WUHU216HW,2013-10-30 10:15:00,
2013-10-30 05:20:00,61.6,58.3,29.98,SE,135,0.7,4.0,89,0.00,,,0.00,WUHU216HW,2013-10-30 10:20:00,
2013-10-30 05:25:00,61.6,58.3,29.97,East,90,1.6,4.0,89,0.00,,,0.00,WUHU216HW,2013-10-30 10:25:00,
2013-10-30 05:30:00,61.6,58.3,29.97,ENE,68,1.1,2.5,89,0.00,,,0.00,WUHU216HW,2013-10-30 10:30:00,
2013-10-30 05:35:00,61.7,58.5,29.97,SE,135,0.2,1.8,89,0.00,,,0.00,WUHU216HW,2013-10-30 10:35:00,
2013-10-30 05:40:00,61.7,58.5,29.97,East,90,1.8,1.8,89,0.00,,,0.00,WUHU216HW,2013-10-30 10:40:00,
2013-10-30 05:45:00,61.7,58.5,29.96,East,90,2.0,2.0,89,0.00,,,0.00,WUHU216HW,2013-10-30 10:45:00,
2013-10-30 05:50:00,61.6,58.3,29.96,ESE,113,0.0,2.5,89,0.00,,,0.00,WUHU216HW,2013-10-30 10:50:00,
2013-10-30 05:55:00,61.7,58.5,29.97,ESE,113,1.1,2.5,89,0.00,,,0.00,WUHU216HW,2013-10-30 10:55:00,
2013-10-30 06:00:00,61.7,58.5,29.96,ESE,113,1.8,1.8,89,0.00,,,0.00,WUHU216HW,2013-10-30 11:00:00,
2013-10-30 06:05:00,61.7,58.5,29.95,SE,135,3.4,4.3,89,0.00,,,0.00,WUHU216HW,2013-10-30 11:05:00,
2013-10-30 06:10:00,61.9,58.7,29.95,SE,135,2.9,4.3,89,0.00,,,0.00,WUHU216HW,2013-10-30 11:10:00,
2013-10-30 06:15:00,61.9,58.7,29.95,SE,135,4.0,4.9,89,0.00,,,0.00,WUHU216HW,2013-10-30 11:15:00,
2013-10-30 06:20:00,62.1,58.9,29.94,SE,135,2.2,4.9,89,0.00,,,0.00,WUHU216HW,2013-10-30 11:20:00,
2013-10-30 06:25:00,62.3,59.0,29.95,ESE,113,3.1,4.0,89,0.00,,,0.00,WUHU216HW,2013-10-30 11:25:00,
2013-10-30 06:30:00,62.5,59.2,29.95,SSE,158,2.2,4.7,89,0.00,,,0.00,WUHU216HW,2013-10-30 11:30:00,
2013-10-30 06:35:00,62.6,59.4,29.95,SE,135,3.8,4.7,89,0.00,,,0.00,WUHU216HW,2013-10-30 11:35:00,
2013-10-30 06:40:00,62.8,59.6,29.94,South,180,2.7,5.4,89,0.00,,,0.00,WUHU216HW,2013-10-30 11:40:00,
2013-10-30 06:45:00,62.8,59.6,29.95,SW,225,3.1,5.4,89,0.00,,,0.00,WUHU216HW,2013-10-30 11:45:00,
2013-10-30 06:50:00,63.0,59.8,29.97,NW,315,7.6,7.6,89,0.00,,,0.00,WUHU216HW,2013-10-30 11:50:00,
2013-10-30 06:55:00,62.3,59.0,29.98,NW,315,6.3,12.8,89,0.00,,,0.00,WUHU216HW,2013-10-30 11:55:00,
2013-10-30 07:00:00,60.7,57.8,29.98,NW,315,2.9,12.8,90,0.00,,,0.00,WUHU216HW,2013-10-30 12:00:00,
2013-10-30 07:05:00,59.8,56.9,29.98,NNE,23,6.5,7.4,90,0.00,,,0.00,WUHU216HW,2013-10-30 12:05:00,
2013-10-30 07:10:00,59.2,56.3,29.97,NW,315,4.5,7.4,90,0.00,,,0.00,WUHU216HW,2013-10-30 12:10:00,
2013-10-30 07:15:00,58.9,56.0,29.97,ENE,68,5.1,6.3,90,0.00,,,0.00,WUHU216HW,2013-10-30 12:15:00,
2013-10-30 07:20:00,58.7,55.8,29.97,East,90,3.6,6.9,90,0.00,,,0.00,WUHU216HW,2013-10-30 12:20:00,
2013-10-30 07:25:00,58.5,55.6,29.97,East,90,1.3,6.9,90,0.00,,,0.00,WUHU216HW,2013-10-30 12:25:00,
2013-10-30 07:30:00,58.5,55.6,29.97,NNE,23,1.8,4.3,90,0.00,,,0.00,WUHU216HW,2013-10-30 12:30:00,
2013-10-30 07:35:00,58.5,55.6,29.97,ENE,68,0.9,2.5,90,0.00,,,0.00,WUHU216HW,2013-10-30 12:35:00,
2013-10-30 07:40:00,58.5,55.6,29.96,East,90,2.9,2.9,90,0.00,,,0.00,WUHU216HW,2013-10-30 12:40:00,
2013-10-30 07:45:00,58.7,55.8,29.96,East,90,2.0,2.9,90,0.00,,,0.00,WUHU216HW,2013-10-30 12:45:00,
2013-10-30 07:50:00,58.7,55.8,29.96,ESE,113,1.8,3.1,90,0.00,,,0.00,WUHU216HW,2013-10-30 12:50:00,
2013-10-30 07:55:00,58.7,55.8,29.96,ESE,113,1.8,3.1,90,0.00,,,0.00,WUHU216HW,2013-10-30 12:55:00,
2013-10-30 08:00:00,58.5,55.6,29.96,SE,135,2.9,2.9,90,0.00,,,0.00,WUHU216HW,2013-10-30 13:00:00,
2013-10-30 08:05:00,58.7,55.8,29.96,ESE,113,3.1,3.4,90,0.00,,,0.00,WUHU216HW,2013-10-30 13:05:00,
2013-10-30 08:10:00,58.7,55.8,29.95,SE,135,4.3,4.3,90,0.00,,,0.00,WUHU216HW,2013-10-30 13:10:00,
2013-10-30 08:15:00,58.7,55.8,29.95,SE,135,3.4,4.5,90,0.00,,,0.00,WUHU216HW,2013-10-30 13:15:00,
2013-10-30 08:20:00,58.7,55.8,29.95,SE,135,3.4,4.5,90,0.00,,,0.00,WUHU216HW,2013-10-30 13:20:00,
2013-10-30 08:25:00,58.7,55.8,29.95,SE,135,1.6,3.4,90,0.00,,,0.00,WUHU216HW,2013-10-30 13:25:00,
2013-10-30 08:30:00,58.9,56.0,29.95,SE,135,1.3,2.2,90,0.00,,,0.00,WUHU216HW,2013-10-30 13:30:00,
2013-10-30 08:35:00,59.0,56.2,29.95,SE,135,2.0,2.0,90,0.00,,,0.00,WUHU216HW,2013-10-30 13:35:00,
2013-10-30 08:40:00,59.2,56.3,29.95,ESE,113,1.8,3.8,90,0.00,,,0.00,WUHU216HW,2013-10-30 13:40:00,
2013-10-30 08:45:00,59.4,56.5,29.95,ESE,113,4.0,4.0,90,0.00,,,0.00,WUHU216HW,2013-10-30 13:45:00,
2013-10-30 08:50:00,59.4,56.5,29.95,ESE,113,3.6,4.0,90,0.00,,,0.00,WUHU216HW,2013-10-30 13:50:00,
2013-10-30 08:55:00,59.4,56.5,29.94,SSE,158,4.7,4.7,90,0.00,,,0.00,WUHU216HW,2013-10-30 13:55:00,
2013-10-30 09:00:00,59.6,56.7,29.94,SE,135,5.4,5.4,90,0.00,,,0.00,WUHU216HW,2013-10-30 14:00:00,
2013-10-30 09:05:00,59.8,56.9,29.94,ESE,113,4.5,5.4,90,0.00,,,0.00,WUHU216HW,2013-10-30 14:05:00,
2013-10-30 09:10:00,59.8,56.9,29.93,ESE,113,3.4,6.5,90,0.00,,,0.00,WUHU216HW,2013-10-30 14:10:00,
2013-10-30 09:15:00,59.8,56.9,29.94,SE,135,3.8,6.5,90,0.00,,,0.00,WUHU216HW,2013-10-30 14:15:00,
2013-10-30 09:20:00,59.9,57.1,29.95,ENE,68,3.4,4.3,90,0.00,,,0.00,WUHU216HW,2013-10-30 14:20:00,
2013-10-30 09:25:00,59.9,57.1,29.94,SE,135,4.7,5.1,90,0.00,,,0.00,WUHU216HW,2013-10-30 14:25:00,
2013-10-30 09:30:00,59.9,57.1,29.95,SE,135,2.5,5.1,90,0.00,,,0.00,WUHU216HW,2013-10-30 14:30:00,
2013-10-30 09:35:00,59.9,57.1,29.95,ESE,113,1.8,2.5,90,0.00,,,0.00,WUHU216HW,2013-10-30 14:35:00,
2013-10-30 09:40:00,59.9,57.1,29.94,ESE,113,4.0,4.0,90,0.00,,,0.00,WUHU216HW,2013-10-30 14:40:00,
2013-10-30 09:45:00,60.1,57.2,29.94,ESE,113,3.4,4.0,90,0.00,,,0.00,WUHU216HW,2013-10-30 14:45:00,
2013-10-30 09:50:00,60.1,57.2,29.94,SE,135,3.4,3.8,90,0.00,,,0.00,WUHU216HW,2013-10-30 14:50:00,
2013-10-30 09:55:00,60.1,57.2,29.94,ESE,113,2.0,4.0,90,0.00,,,0.00,WUHU216HW,2013-10-30 14:55:00,
2013-10-30 10:00:00,60.1,57.2,29.94,East,90,3.8,4.9,90,0.00,,,0.00,WUHU216HW,2013-10-30 15:00:00,
2013-10-30 10:05:00,60.1,57.2,29.94,ESE,113,2.5,4.9,90,0.00,,,0.00,WUHU216HW,2013-10-30 15:05:00,
2013-10-30 10:10:00,60.1,57.2,29.93,ENE,68,4.9,4.9,90,0.00,,,0.00,WUHU216HW,2013-10-30 15:10:00,
2013-10-30 10:15:00,60.3,57.4,29.92,SW,225,4.7,4.9,90,0.00,,,0.00,WUHU216HW,2013-10-30 15:15:00,
2013-10-30 10:20:00,60.5,57.6,29.91,SE,135,4.9,4.9,90,0.00,,,0.00,WUHU216HW,2013-10-30 15:20:00,
2013-10-30 10:25:00,60.5,57.6,29.91,SE,135,3.4,4.9,90,0.00,,,0.00,WUHU216HW,2013-10-30 15:25:00,
2013-10-30 10:30:00,60.7,57.8,29.90,ESE,113,3.8,5.4,90,0.00,,,0.00,WUHU216HW,2013-10-30 15:30:00,
2013-10-30 10:35:00,60.8,58.0,29.90,SE,135,3.6,5.6,90,0.00,,,0.00,WUHU216HW,2013-10-30 15:35:00,
2013-10-30 10:40:00,61.0,58.1,29.91,SE,135,3.4,5.6,90,0.00,,,0.00,WUHU216HW,2013-10-30 15:40:00,
2013-10-30 10:45:00,61.2,58.3,29.90,ESE,113,7.2,8.9,90,0.00,,,0.00,WUHU216HW,2013-10-30 15:45:00,
2013-10-30 10:50:00,61.4,58.5,29.90,ESE,113,2.0,8.9,90,0.00,,,0.00,WUHU216HW,2013-10-30 15:50:00,
2013-10-30 10:55:00,61.4,58.5,29.90,SSE,158,9.2,11.4,90,0.00,,,0.00,WUHU216HW,2013-10-30 15:55:00,
2013-10-30 11:00:00,61.6,58.7,29.92,South,180,3.6,11.4,90,0.00,,,0.00,WUHU216HW,2013-10-30 16:00:00,
2013-10-30 11:05:00,61.6,58.7,29.90,ESE,113,5.4,5.4,90,0.00,,,0.00,WUHU216HW,2013-10-30 16:05:00,
2013-10-30 11:10:00,61.7,58.9,29.89,SE,135,6.9,7.8,90,0.00,,,0.00,WUHU216HW,2013-10-30 16:10:00,
2013-10-30 11:15:00,61.7,58.9,29.87,ESE,113,7.4,10.3,90,0.00,,,0.00,WUHU216HW,2013-10-30 16:15:00,
2013-10-30 11:20:00,61.7,58.9,29.88,SE,135,4.0,10.3,90,0.00,,,0.00,WUHU216HW,2013-10-30 16:20:00,
2013-10-30 11:25:00,61.9,59.0,29.87,East,90,4.5,8.1,90,0.00,,,0.00,WUHU216HW,2013-10-30 16:25:00,
2013-10-30 11:30:00,61.9,59.0,29.87,SE,135,4.7,7.6,90,0.00,,,0.00,WUHU216HW,2013-10-30 16:30:00,
2013-10-30 11:35:00,62.1,59.2,29.89,SE,135,3.4,9.2,90,0.00,,,0.00,WUHU216HW,2013-10-30 16:35:00,
2013-10-30 11:40:00,62.3,59.4,29.92,WSW,248,13.2,13.2,90,0.00,,,0.00,WUHU216HW,2013-10-30 16:40:00,
2013-10-30 11:46:00,62.5,59.6,29.92,WNW,293,5.4,13.2,90,0.00,,,0.00,WUHU216HW,2013-10-30 16:46:00,
2013-10-30 11:51:00,62.5,59.2,29.91,NW,315,4.0,10.5,89,0.00,,,0.00,WUHU216HW,2013-10-30 16:51:00,
2013-10-30 11:56:00,62.5,59.2,29.90,West,270,2.2,6.9,89,0.00,,,0.00,WUHU216HW,2013-10-30 16:56:00,
2013-10-30 12:00:00,62.3,59.0,29.91,NW,315,2.5,4.3,89,0.00,,,0.00,WUHU216HW,2013-10-30 17:00:00,
2013-10-30 12:06:00,62.3,59.0,29.91,SW,225,3.6,5.4,89,0.00,,,0.00,WUHU216HW,2013-10-30 17:06:00,
2013-10-30 12:11:00,62.3,59.0,29.91,SSW,203,2.5,5.4,89,0.00,,,0.00,WUHU216HW,2013-10-30 17:11:00,
2013-10-30 12:16:00,62.3,59.0,29.91,SSW,203,2.0,3.8,89,0.00,,,0.00,WUHU216HW,2013-10-30 17:16:00,
2013-10-30 12:21:00,62.3,59.0,29.90,SSW,203,1.8,3.8,89,0.00,,,0.00,WUHU216HW,2013-10-30 17:21:00,
2013-10-30 12:26:00,62.1,58.9,29.89,WSW,248,1.8,3.6,89,0.00,,,0.00,WUHU216HW,2013-10-30 17:26:00,
2013-10-30 12:31:00,62.3,59.0,29.89,WNW,293,1.8,4.7,89,0.00,,,0.00,WUHU216HW,2013-10-30 17:31:00,
2013-10-30 12:36:00,62.3,59.0,29.88,SSW,203,3.4,4.7,89,0.00,,,0.00,WUHU216HW,2013-10-30 17:36:00,
2013-10-30 12:41:00,62.3,59.0,29.88,SSW,203,2.0,3.6,89,0.00,,,0.00,WUHU216HW,2013-10-30 17:41:00,
2013-10-30 12:46:00,62.3,59.0,29.88,SW,225,1.6,4.0,89,0.00,,,0.00,WUHU216HW,2013-10-30 17:46:00,
2013-10-30 12:51:00,62.3,59.0,29.87,WNW,293,2.2,4.0,89,0.00,,,0.00,WUHU216HW,2013-10-30 17:51:00,
2013-10-30 12:56:00,62.5,59.2,29.87,SW,225,1.8,3.6,89,0.00,,,0.00,WUHU216HW,2013-10-30 17:56:00,
2013-10-30 13:01:00,62.6,59.4,29.87,WSW,248,1.8,2.2,89,0.00,,,0.00,WUHU216HW,2013-10-30 18:01:00,
2013-10-30 13:06:00,62.6,59.4,29.86,SW,225,0.7,2.5,89,0.00,,,0.00,WUHU216HW,2013-10-30 18:06:00,
2013-10-30 13:11:00,62.8,59.6,29.86,South,180,0.4,2.5,89,0.00,,,0.00,WUHU216HW,2013-10-30 18:11:00,
2013-10-30 13:16:00,62.8,59.6,29.86,SW,225,0.7,2.7,89,0.00,,,0.00,WUHU216HW,2013-10-30 18:16:00,
2013-10-30 13:21:00,62.8,59.6,29.86,SW,225,1.1,2.7,89,0.00,,,0.00,WUHU216HW,2013-10-30 18:21:00,
2013-10-30 13:26:00,63.0,59.8,29.86,SSE,158,0.0,1.8,89,0.00,,,0.00,WUHU216HW,2013-10-30 18:26:00,
2013-10-30 13:31:00,63.2,59.9,29.85,SSW,203,0.4,1.8,89,0.00,,,0.00,WUHU216HW,2013-10-30 18:31:00,
2013-10-30 13:36:00,63.4,60.1,29.84,SE,135,0.2,2.9,89,0.00,,,0.00,WUHU216HW,2013-10-30 18:36:00,
2013-10-30 13:41:00,63.4,60.1,29.84,SE,135,2.5,2.9,89,0.00,,,0.00,WUHU216HW,2013-10-30 18:41:00,
2013-10-30 13:46:00,63.2,59.9,29.84,SE,135,2.7,2.7,89,0.00,,,0.00,WUHU216HW,2013-10-30 18:46:00,
2013-10-30 13:51:00,63.2,59.9,29.84,SE,135,1.8,2.7,89,0.00,,,0.00,WUHU216HW,2013-10-30 18:51:00,
2013-10-30 13:56:00,63.0,59.8,29.84,SSE,158,3.1,3.4,89,0.00,,,0.00,WUHU216HW,2013-10-30 18:56:00,
2013-10-30 14:01:00,63.0,59.8,29.83,SE,135,3.4,4.5,89,0.00,,,0.00,WUHU216HW,2013-10-30 19:01:00,
2013-10-30 14:06:00,63.0,59.8,29.82,East,90,3.8,5.1,89,0.00,,,0.00,WUHU216HW,2013-10-30 19:06:00,
2013-10-30 14:11:00,63.2,59.9,29.82,SE,135,3.4,5.1,89,0.00,,,0.00,WUHU216HW,2013-10-30 19:11:00,
2013-10-30 14:16:00,63.5,60.3,29.82,SSE,158,0.7,5.1,89,0.00,,,0.00,WUHU216HW,2013-10-30 19:16:00,
2013-10-30 14:21:00,63.7,60.5,29.82,SE,135,1.6,4.3,89,0.00,,,0.00,WUHU216HW,2013-10-30 19:21:00,
2013-10-30 14:26:00,63.9,60.7,29.82,SE,135,1.1,2.7,89,0.00,,,0.00,WUHU216HW,2013-10-30 19:26:00,
2013-10-30 14:31:00,64.6,61.4,29.82,South,180,3.1,5.8,89,0.00,,,0.00,WUHU216HW,2013-10-30 19:31:00,
2013-10-30 14:36:00,65.2,61.8,29.83,WNW,293,4.7,6.9,89,0.00,,,0.00,WUHU216HW,2013-10-30 19:36:00,
2013-10-30 14:41:00,65.2,61.8,29.83,WNW,293,5.1,7.6,89,0.00,,,0.00,WUHU216HW,2013-10-30 19:41:00,
2013-10-30 14:46:00,65.0,61.8,29.82,WSW,248,4.7,7.6,89,0.00,,,0.00,WUHU216HW,2013-10-30 19:46:00,
2013-10-30 14:51:00,64.6,61.4,29.82,SW,225,1.1,6.0,89,0.00,,,0.00,WUHU216HW,2013-10-30 19:51:00,
2013-10-30 14:56:00,64.4,61.2,29.82,South,180,1.1,4.5,89,0.00,,,0.00,WUHU216HW,2013-10-30 19:56:00,
2013-10-30 15:01:00,64.3,61.0,29.81,SW,225,0.4,3.1,89,0.00,,,0.00,WUHU216HW,2013-10-30 20:01:00,
2013-10-30 15:06:00,64.3,61.0,29.81,SW,225,2.5,3.4,89,0.00,,,0.00,WUHU216HW,2013-10-30 20:06:00,
2013-10-30 15:11:00,64.1,60.8,29.80,SW,225,1.8,3.4,89,0.00,,,0.00,WUHU216HW,2013-10-30 20:11:00,
2013-10-30 15:16:00,64.1,60.8,29.80,SSW,203,1.1,3.6,89,0.00,,,0.00,WUHU216HW,2013-10-30 20:16:00,
2013-10-30 15:21:00,64.3,60.7,29.80,WSW,248,0.7,3.6,88,0.00,,,0.00,WUHU216HW,2013-10-30 20:21:00,
2013-10-30 15:26:00,64.3,60.7,29.79,SSW,203,1.8,3.1,88,0.00,,,0.00,WUHU216HW,2013-10-30 20:26:00,
2013-10-30 15:31:00,64.4,60.8,29.79,WSW,248,2.7,3.1,88,0.00,,,0.00,WUHU216HW,2013-10-30 20:31:00,
2013-10-30 15:36:00,64.4,60.8,29.79,SSW,203,1.3,4.7,88,0.00,,,0.00,WUHU216HW,2013-10-30 20:36:00,
2013-10-30 15:41:00,64.4,60.8,29.79,South,180,0.9,4.7,88,0.00,,,0.00,WUHU216HW,2013-10-30 20:41:00,
2013-10-30 15:46:00,64.4,60.8,29.79,SE,135,2.9,3.1,88,0.00,,,0.00,WUHU216HW,2013-10-30 20:46:00,
2013-10-30 15:51:00,64.4,60.8,29.79,SW,225,3.6,3.6,88,0.00,,,0.00,WUHU216HW,2013-10-30 20:51:00,
2013-10-30 15:56:00,64.4,60.8,29.80,West,270,4.0,4.0,88,0.00,,,0.00,WUHU216HW,2013-10-30 20:56:00,
2013-10-30 16:01:00,64.8,61.6,29.80,SW,225,2.7,6.9,89,0.00,,,0.00,WUHU216HW,2013-10-30 21:01:00,
2013-10-30 16:06:00,65.0,61.8,29.80,SW,225,4.0,6.9,89,0.00,,,0.00,WUHU216HW,2013-10-30 21:06:00,
2013-10-30 16:11:00,65.0,61.8,29.80,SW,225,2.9,4.7,89,0.00,,,0.00,WUHU216HW,2013-10-30 21:11:00,
2013-10-30 16:16:00,65.0,61.8,29.81,ESE,113,2.2,4.7,89,0.00,,,0.00,WUHU216HW,2013-10-30 21:16:00,
2013-10-30 16:21:00,65.0,61.8,29.80,South,180,3.1,3.8,89,0.00,,,0.00,WUHU216HW,2013-10-30 21:21:00,
2013-10-30 16:26:00,65.0,62.0,29.81,SSW,203,2.0,5.4,90,0.00,,,0.00,WUHU216HW,2013-10-30 21:26:00,
2013-10-30 16:31:00,65.0,62.0,29.80,South,180,3.4,5.4,90,0.00,,,0.00,WUHU216HW,2013-10-30 21:31:00,
2013-10-30 16:36:00,64.8,61.9,29.80,SSW,203,2.9,4.7,90,0.00,,,0.00,WUHU216HW,2013-10-30 21:36:00,
2013-10-30 16:41:00,64.6,61.8,29.80,South,180,4.3,5.8,90,0.00,,,0.00,WUHU216HW,2013-10-30 21:41:00,
2013-10-30 16:46:00,64.4,61.6,29.80,SE,135,2.9,5.8,90,0.00,,,0.00,WUHU216HW,2013-10-30 21:46:00,
2013-10-30 16:51:00,64.4,61.6,29.81,SSW,203,2.9,5.4,90,0.00,,,0.00,WUHU216HW,2013-10-30 21:51:00,
2013-10-30 16:56:00,64.4,61.6,29.81,South,180,4.0,9.6,90,0.00,,,0.00,WUHU216HW,2013-10-30 21:56:00,
2013-10-30 17:01:00,64.3,61.4,29.80,SSE,158,11.0,11.0,90,0.00,,,0.00,WUHU216HW,2013-10-30 22:01:00,
2013-10-30 17:06:00,64.1,61.2,29.79,South,180,4.0,11.0,90,0.00,,,0.00,WUHU216HW,2013-10-30 22:06:00,
2013-10-30 17:11:00,64.1,61.2,29.80,SSE,158,5.6,6.9,90,0.00,,,0.00,WUHU216HW,2013-10-30 22:11:00,
2013-10-30 17:16:00,64.1,61.2,29.79,SSW,203,4.0,6.3,90,0.00,,,0.00,WUHU216HW,2013-10-30 22:16:00,
2013-10-30 17:21:00,63.9,61.0,29.79,East,90,4.0,10.5,90,0.00,,,0.00,WUHU216HW,2013-10-30 22:21:00,
2013-10-30 17:26:00,63.7,60.8,29.76,South,180,14.8,14.8,90,0.00,,,0.00,WUHU216HW,2013-10-30 22:26:00,
2013-10-30 17:31:00,63.7,60.8,29.75,SSW,203,10.5,17.9,90,0.00,,,0.00,WUHU216HW,2013-10-30 22:31:00,
2013-10-30 17:36:00,63.5,60.7,29.76,SW,225,7.6,17.9,90,0.00,,,0.00,WUHU216HW,2013-10-30 22:36:00,
2013-10-30 17:41:00,63.2,60.3,29.75,SSE,158,10.3,10.5,90,0.00,,,0.00,WUHU216HW,2013-10-30 22:41:00,
2013-10-30 17:46:00,62.6,59.8,29.75,South,180,11.2,11.4,90,0.00,,,0.00,WUHU216HW,2013-10-30 22:46:00,
2013-10-30 17:51:00,62.5,59.6,29.74,ESE,113,7.4,11.4,90,0.00,,,0.00,WUHU216HW,2013-10-30 22:51:00,
2013-10-30 17:56:00,61.6,58.7,29.74,SSW,203,8.5,8.9,90,0.00,,,0.00,WUHU216HW,2013-10-30 22:56:00,
2013-10-30 18:01:00,61.6,58.7,29.76,SSW,203,5.1,8.5,90,0.00,,,0.00,WUHU216HW,2013-10-30 23:01:00,
2013-10-30 18:06:00,61.9,59.0,29.76,SW,225,3.4,8.1,90,0.00,,,0.00,WUHU216HW,2013-10-30 23:06:00,
2013-10-30 18:11:00,62.3,59.4,29.78,WSW,248,4.9,10.3,90,0.00,,,0.00,WUHU216HW,2013-10-30 23:11:00,
2013-10-30 18:16:00,62.5,59.6,29.78,SW,225,6.9,10.3,90,0.00,,,0.00,WUHU216HW,2013-10-30 23:16:00,
2013-10-30 18:21:00,62.6,59.8,29.77,SSE,158,5.4,6.9,90,0.00,,,0.00,WUHU216HW,2013-10-30 23:21:00,
2013-10-30 18:26:00,62.6,59.8,29.78,South,180,6.7,6.7,90,0.00,,,0.00,WUHU216HW,2013-10-30 23:26:00,
2013-10-30 18:31:00,63.0,60.1,29.78,SE,135,4.0,7.6,90,0.00,,,0.00,WUHU216HW,2013-10-30 23:31:00,
2013-10-30 18:36:00,63.2,60.3,29.78,WNW,293,3.8,7.6,90,0.00,,,0.00,WUHU216HW,2013-10-30 23:36:00,
2013-10-30 18:41:00,63.4,60.5,29.78,SSW,203,4.5,6.3,90,0.00,,,0.00,WUHU216HW,2013-10-30 23:41:00,
2013-10-30 18:46:00,63.4,60.5,29.78,SSW,203,3.8,4.7,90,0.00,,,0.00,WUHU216HW,2013-10-30 23:46:00,
2013-10-30 18:51:00,63.4,60.5,29.78,SW,225,2.9,6.3,90,0.00,,,0.00,WUHU216HW,2013-10-30 23:51:00,
2013-10-30 18:56:00,63.5,60.7,29.78,SE,135,3.8,6.3,90,0.00,,,0.00,WUHU216HW,2013-10-30 23:56:00,
2013-10-30 19:01:00,63.5,60.7,29.78,South,180,2.0,7.4,90,0.00,,,0.00,WUHU216HW,2013-10-31 00:01:00,
2013-10-30 19:06:00,63.7,60.8,29.79,SSE,158,4.3,7.4,90,0.00,,,0.00,WUHU216HW,2013-10-31 00:06:00,
2013-10-30 19:11:00,63.7,60.8,29.79,WSW,248,5.4,8.7,90,0.00,,,0.00,WUHU216HW,2013-10-31 00:11:00,
2013-10-30 19:16:00,63.7,60.8,29.78,South,180,3.1,8.7,90,0.00,,,0.00,WUHU216HW,2013-10-31 00:16:00,
2013-10-30 19:21:00,63.7,60.8,29.77,SSW,203,3.8,8.1,90,0.00,,,0.00,WUHU216HW,2013-10-31 00:21:00,
2013-10-30 19:26:00,63.7,60.8,29.77,SSE,158,3.4,6.9,90,0.00,,,0.00,WUHU216HW,2013-10-31 00:26:00,
2013-10-30 19:31:00,63.7,60.8,29.78,SW,225,7.6,7.6,90,0.00,,,0.00,WUHU216HW,2013-10-31 00:31:00,
2013-10-30 19:36:00,63.7,60.8,29.78,SSW,203,3.4,8.9,90,0.00,,,0.00,WUHU216HW,2013-10-31 00:36:00,
2013-10-30 19:41:00,63.7,60.8,29.78,West,270,3.1,8.9,90,0.00,,,0.00,WUHU216HW,2013-10-31 00:41:00,
2013-10-30 19:46:00,63.7,60.8,29.77,SSW,203,3.6,5.8,90,0.00,,,0.00,WUHU216HW,2013-10-31 00:46:00,
2013-10-30 19:51:00,63.5,60.7,29.77,SW,225,4.0,5.8,90,0.00,,,0.00,WUHU216HW,2013-10-31 00:51:00,
2013-10-30 19:56:00,63.4,60.5,29.77,SSW,203,2.5,4.9,90,0.00,,,0.00,WUHU216HW,2013-10-31 00:56:00,
2013-10-30 20:01:00,63.4,60.5,29.77,SSW,203,3.1,4.0,90,0.00,,,0.00,WUHU216HW,2013-10-31 01:01:00,
2013-10-30 20:06:00,63.2,60.3,29.77,SW,225,1.8,3.4,90,0.00,,,0.00,WUHU216HW,2013-10-31 01:06:00,
2013-10-30 20:11:00,63.2,60.3,29.77,South,180,2.5,2.7,90,0.00,,,0.00,WUHU216HW,2013-10-31 01:11:00,
2013-10-30 20:16:00,63.2,60.3,29.77,SSE,158,2.2,3.8,90,0.00,,,0.00,WUHU216HW,2013-10-31 01:16:00,
2013-10-30 20:21:00,63.2,60.3,29.77,South,180,2.5,3.8,90,0.00,,,0.00,WUHU216HW,2013-10-31 01:21:00,
2013-10-30 20:26:00,63.4,60.5,29.77,SSW,203,4.0,7.8,90,0.00,,,0.00,WUHU216HW,2013-10-31 01:26:00,
2013-10-30 20:31:00,63.4,60.5,29.77,SE,135,2.9,7.8,90,0.00,,,0.00,WUHU216HW,2013-10-31 01:31:00,
2013-10-30 20:36:00,63.4,60.5,29.77,WSW,248,1.6,4.0,90,0.00,,,0.00,WUHU216HW,2013-10-31 01:36:00,
2013-10-30 20:41:00,63.4,60.5,29.77,SW,225,4.5,4.7,90,0.00,,,0.00,WUHU216HW,2013-10-31 01:41:00,
2013-10-30 20:46:00,63.4,60.5,29.77,SW,225,5.1,5.1,90,0.00,,,0.00,WUHU216HW,2013-10-31 01:46:00,
2013-10-30 20:51:00,63.4,60.5,29.77,SSW,203,2.5,5.4,90,0.00,,,0.00,WUHU216HW,2013-10-31 01:51:00,
2013-10-30 20:56:00,63.4,60.5,29.77,SSW,203,4.3,7.2,90,0.00,,,0.00,WUHU216HW,2013-10-31 01:56:00,
2013-10-30 21:01:00,63.5,60.7,29.77,SSE,158,3.4,7.2,90,0.00,,,0.00,WUHU216HW,2013-10-31 02:01:00,
2013-10-30 21:06:00,63.5,60.7,29.77,South,180,7.2,7.2,90,0.00,,,0.00,WUHU216HW,2013-10-31 02:06:00,
2013-10-30 21:11:00,63.5,60.7,29.76,SSW,203,6.3,7.2,90,0.00,,,0.00,WUHU216HW,2013-10-31 02:11:00,
2013-10-30 21:16:00,63.5,60.7,29.77,SSW,203,5.4,6.3,90,0.00,,,0.00,WUHU216HW,2013-10-31 02:16:00,
2013-10-30 21:21:00,63.5,60.7,29.77,SW,225,8.1,8.1,90,0.00,,,0.00,WUHU216HW,2013-10-31 02:21:00,
2013-10-30 21:26:00,63.5,60.7,29.77,SSW,203,4.3,8.1,90,0.00,,,0.00,WUHU216HW,2013-10-31 02:26:00,
2013-10-30 21:31:00,63.7,60.8,29.77,South,180,6.5,7.6,90,0.00,,,0.00,WUHU216HW,2013-10-31 02:31:00,
2013-10-30 21:36:00,63.5,60.7,29.77,SSW,203,5.4,7.6,90,0.00,,,0.00,WUHU216HW,2013-10-31 02:36:00,
2013-10-30 21:41:00,63.5,60.7,29.77,SSW,203,2.5,7.6,90,0.00,,,0.00,WUHU216HW,2013-10-31 02:41:00,
2013-10-30 21:46:00,63.4,60.5,29.77,SW,225,4.3,7.6,90,0.00,,,0.00,WUHU216HW,2013-10-31 02:46:00,
2013-10-30 21:51:00,63.2,60.3,29.77,SW,225,4.5,7.6,90,0.00,,,0.00,WUHU216HW,2013-10-31 02:51:00,
2013-10-30 21:56:00,63.2,60.3,29.77,SSW,203,5.8,5.8,90,0.00,,,0.00,WUHU216HW,2013-10-31 02:56:00,
2013-10-30 22:00:00,63.2,60.3,29.77,SW,225,5.1,5.8,90,0.00,,,0.00,WUHU216HW,2013-10-31 03:00:00,
2013-10-30 22:05:00,63.0,60.1,29.77,SSE,158,2.2,6.7,90,0.00,,,0.00,WUHU216HW,2013-10-31 03:05:00,
2013-10-30 22:10:00,63.0,60.1,29.77,South,180,3.4,6.7,90,0.00,,,0.00,WUHU216HW,2013-10-31 03:10:00,
2013-10-30 22:15:00,63.0,60.1,29.77,SSW,203,1.1,5.6,90,0.00,,,0.00,WUHU216HW,2013-10-31 03:15:00,
2013-10-30 22:20:00,63.0,60.1,29.77,South,180,2.7,7.2,90,0.00,,,0.00,WUHU216HW,2013-10-31 03:20:00,
2013-10-30 22:25:00,63.0,60.1,29.77,SW,225,5.8,7.2,90,0.00,,,0.00,WUHU216HW,2013-10-31 03:25:00,
2013-10-30 22:30:00,63.0,59.8,29.77,WSW,248,4.9,6.5,89,0.00,,,0.00,WUHU216HW,2013-10-31 03:30:00,
2013-10-30 22:35:00,63.0,59.8,29.77,SSW,203,6.3,6.5,89,0.00,,,0.00,WUHU216HW,2013-10-31 03:35:00,
2013-10-30 22:40:00,63.0,59.8,29.77,SW,225,5.1,6.3,89,0.00,,,0.00,WUHU216HW,2013-10-31 03:40:00,
2013-10-30 22:45:00,63.0,59.8,29.77,SW,225,6.3,6.7,89,0.00,,,0.00,WUHU216HW,2013-10-31 03:45:00,
2013-10-30 22:50:00,62.8,59.6,29.77,WNW,293,1.8,6.9,89,0.00,,,0.00,WUHU216HW,2013-10-31 03:50:00,
2013-10-30 22:55:00,62.8,59.6,29.77,SW,225,2.0,6.9,89,0.00,,,0.00,WUHU216HW,2013-10-31 03:55:00,
2013-10-30 23:00:00,62.8,59.6,29.77,South,180,2.5,6.9,89,0.00,,,0.00,WUHU216HW,2013-10-31 04:00:00,
2013-10-30 23:01:00,62.8,59.6,29.77,South,180,2.5,6.9,89,0.00,,,0.00,WUHU216HW,2013-10-31 04:01:00,
2013-10-30 23:02:00,62.8,59.6,29.77,SW,225,3.4,6.9,89,0.00,,,0.00,WUHU216HW,2013-10-31 04:02:00,
2013-10-30 23:07:00,62.8,59.6,29.77,WSW,248,7.4,7.6,89,0.00,,,0.00,WUHU216HW,2013-10-31 04:07:00,
2013-10-30 23:12:00,62.8,59.6,29.77,WSW,248,2.9,7.6,89,0.00,,,0.00,WUHU216HW,2013-10-31 04:12:00,
2013-10-30 23:17:00,62.3,59.0,29.77,WNW,293,6.9,7.6,89,0.00,,,0.00,WUHU216HW,2013-10-31 04:17:00,
2013-10-30 23:22:00,61.6,58.7,29.77,West,270,8.1,9.8,90,0.00,,,0.00,WUHU216HW,2013-10-31 04:22:00,
2013-10-30 23:27:00,60.5,57.6,29.77,WNW,293,7.4,9.8,90,0.00,,,0.00,WUHU216HW,2013-10-31 04:27:00,
2013-10-30 23:32:00,60.1,57.2,29.77,WNW,293,6.5,9.2,90,0.00,,,0.00,WUHU216HW,2013-10-31 04:32:00,
2013-10-30 23:37:00,59.8,56.9,29.77,WNW,293,5.4,8.7,90,0.00,,,0.00,WUHU216HW,2013-10-31 04:37:00,
2013-10-30 23:42:00,59.6,56.7,29.76,WNW,293,5.4,7.6,90,0.00,,,0.00,WUHU216HW,2013-10-31 04:42:00,
2013-10-30 23:47:00,59.4,56.5,29.76,NW,315,4.5,6.5,90,0.00,,,0.00,WUHU216HW,2013-10-31 04:47:00,
2013-10-30 23:52:00,59.0,56.2,29.76,WNW,293,7.8,7.8,90,0.00,,,0.00,WUHU216HW,2013-10-31 04:52:00,
2013-10-30 23:56:00,58.5,55.9,29.76,WNW,293,6.0,7.8,91,0.00,,,0.00,WUHU216HW,2013-10-31 04:56:00,